createdAt,value
2023-02-03T00:03:56.058Z,100707.29
2023-02-03T00:09:00.965Z,100704.92
2023-02-03T00:14:05.644Z,100701.20
2023-02-03T00:19:08.751Z,100712.06
2023-02-03T00:24:11.954Z,100718.29
2023-02-03T00:29:15.374Z,100717.92
2023-02-03T00:34:18.381Z,100718.52
2023-02-03T00:39:21.376Z,100722.46
2023-02-03T00:44:24.690Z,100719.86
2023-02-03T00:49:27.796Z,100712.80
2023-02-03T00:54:32.642Z,100710.60
2023-02-03T00:59:36.564Z,100709.83
2023-02-03T01:04:39.775Z,100707.07
2023-02-03T01:09:42.773Z,100703.11
2023-02-03T01:14:45.985Z,100702.49
2023-02-03T01:19:50.622Z,100696.49
2023-02-03T01:24:53.626Z,100694.09
2023-02-03T01:29:56.842Z,100686.59
2023-02-03T01:34:59.837Z,100678.88
2023-02-03T01:40:04.073Z,100667.56
2023-02-03T01:45:08.728Z,100667.61
2023-02-03T01:50:15.403Z,100663.07
2023-02-03T01:55:23.300Z,100649.02
2023-02-03T02:00:27.265Z,100638.92
2023-02-03T02:05:39.875Z,100639.53
2023-02-03T02:10:43.078Z,100634.89
2023-02-03T02:16:02.305Z,100633.33
2023-02-03T02:21:31.377Z,100627.91
2023-02-03T02:26:44.111Z,100618.23
2023-02-03T02:32:09.741Z,100612.59
2023-02-03T02:37:18.788Z,100607.59
2023-02-03T02:42:54.103Z,100606.07
2023-02-03T02:48:05.927Z,100601.58
2023-02-03T02:53:10.495Z,100592.52
2023-02-03T02:58:16.796Z,100582.80
2023-02-03T03:03:22.702Z,100576.85
2023-02-03T03:08:53.916Z,100581.23
2023-02-03T03:13:57.533Z,100581.28
2023-02-03T03:19:07.185Z,100584.95
2023-02-03T03:24:15.719Z,100583.38
2023-02-03T03:29:25.379Z,100584.14
2023-02-03T03:34:30.573Z,100586.82
2023-02-03T03:39:55.249Z,100592.09
2023-02-03T03:45:04.808Z,100597.17
2023-02-03T03:50:12.296Z,100597.58
2023-02-03T03:55:18.747Z,100589.42
2023-02-03T04:00:24.861Z,100576.35
2023-02-03T04:05:28.804Z,100564.30
2023-02-03T04:10:36.301Z,100553.13
2023-02-03T04:15:39.613Z,100544.58
2023-02-03T04:20:42.616Z,100540.09
2023-02-03T04:25:46.027Z,100544.08
2023-02-03T04:30:49.145Z,100536.60
2023-02-03T04:35:52.130Z,100530.77
2023-02-03T04:40:55.261Z,100521.80
2023-02-03T04:46:00.393Z,100511.36
2023-02-03T04:51:04.954Z,100510.84
2023-02-03T04:56:08.081Z,100513.44
2023-02-03T05:01:11.284Z,100509.39
2023-02-03T05:06:14.353Z,100506.56
2023-02-03T05:11:17.458Z,100499.69
2023-02-03T05:16:20.924Z,100490.96
2023-02-03T05:21:24.078Z,100480.28
2023-02-03T05:26:27.188Z,100471.38
2023-02-03T05:31:30.165Z,100456.83
2023-02-03T05:36:33.299Z,100449.56
2023-02-03T05:41:56.565Z,100437.12
2023-02-03T05:47:01.122Z,100430.37
2023-02-03T05:52:04.829Z,100421.64
2023-02-03T05:57:07.834Z,100413.42
2023-02-03T06:02:10.835Z,100401.46
2023-02-03T06:07:13.739Z,100394.02
2023-02-03T06:12:16.712Z,100392.27
2023-02-03T06:17:19.636Z,100388.21
2023-02-03T06:22:22.745Z,100382.34
2023-02-03T06:27:26.052Z,100371.53
2023-02-03T06:32:29.157Z,100366.73
2023-02-03T06:37:32.777Z,100353.31
2023-02-03T06:42:35.783Z,100343.29
2023-02-03T06:47:42.376Z,100331.92
2023-02-03T06:52:45.264Z,100321.40
2023-02-03T06:57:48.591Z,100319.53
2023-02-03T07:02:55.581Z,100312.17
2023-02-03T07:07:59.398Z,100303.89
2023-02-03T07:13:04.036Z,100295.27
2023-02-03T07:18:07.057Z,100284.56
2023-02-03T07:23:09.950Z,100280.29
2023-02-03T07:28:13.339Z,100276.05
2023-02-03T07:33:16.255Z,100263.12
2023-02-03T07:38:19.665Z,100253.30
2023-02-03T07:43:23.406Z,100238.45
2023-02-03T07:48:26.390Z,100226.94
2023-02-03T07:53:29.397Z,100226.28
2023-02-03T07:58:32.605Z,100219.80
2023-02-03T08:03:35.444Z,100208.42
2023-02-03T08:08:38.715Z,100194.61
2023-02-03T08:13:41.917Z,100190.95
2023-02-03T08:18:45.554Z,100183.16
2023-02-03T08:23:49.783Z,100170.40
2023-02-03T08:28:52.977Z,100158.40
2023-02-03T08:33:56.265Z,100151.35
2023-02-03T08:38:59.290Z,100132.02
2023-02-03T08:44:02.495Z,100127.31
2023-02-03T08:49:06.523Z,100121.52
2023-02-03T08:54:09.631Z,100107.65
2023-02-03T08:59:13.048Z,100098.64
2023-02-03T09:04:24.846Z,100090.91
2023-02-03T09:09:29.226Z,100081.20
2023-02-03T09:14:33.416Z,100063.20
2023-02-03T09:19:36.852Z,100049.05
2023-02-03T09:24:40.651Z,100036.61
2023-02-03T09:29:43.653Z,100027.13
2023-02-03T09:34:46.567Z,100010.25
2023-02-03T09:39:49.636Z,99995.65
2023-02-03T09:44:58.703Z,99981.62
2023-02-03T09:50:04.883Z,99967.48
2023-02-03T09:55:28.063Z,99953.48
2023-02-03T10:00:51.318Z,99944.91
2023-02-03T10:06:10.009Z,99936.20
2023-02-03T10:11:18.851Z,99927.48
2023-02-03T10:16:48.780Z,99914.02
2023-02-03T10:21:55.572Z,99896.14
2023-02-03T10:26:59.088Z,99878.82
2023-02-03T10:32:02.855Z,99865.20
2023-02-03T10:37:26.783Z,99844.45
2023-02-03T10:42:51.511Z,99830.77
2023-02-03T10:47:56.275Z,99808.41
2023-02-03T10:53:19.900Z,99782.59
2023-02-03T10:58:26.644Z,99764.89
2023-02-03T11:03:29.964Z,99747.17
2023-02-03T11:08:33.465Z,99734.20
2023-02-03T11:13:36.663Z,99719.61
2023-02-03T11:18:46.229Z,99707.44
2023-02-03T11:23:52.716Z,99697.36
2023-02-03T11:28:57.481Z,99693.20
2023-02-03T11:34:03.227Z,99683.63
2023-02-03T11:39:09.819Z,99672.01
2023-02-03T11:44:17.319Z,99656.08
2023-02-03T11:49:39.578Z,99644.63
2023-02-03T11:54:54.233Z,99634.46
2023-02-03T11:59:57.573Z,99625.77
2023-02-03T12:05:01.348Z,99609.72
2023-02-03T12:10:25.484Z,99595.55
2023-02-03T12:15:36.901Z,99579.27
2023-02-03T12:20:41.180Z,99560.88
2023-02-03T12:25:57.235Z,99544.10
2023-02-03T12:31:09.170Z,99531.78
2023-02-03T12:36:19.026Z,99517.48
2023-02-03T12:41:43.275Z,99503.40
2023-02-03T12:47:07.102Z,99491.17
2023-02-03T12:52:23.517Z,99481.40
2023-02-03T12:57:26.631Z,99466.40
2023-02-03T13:02:32.750Z,99462.61
2023-02-03T13:07:57.763Z,99452.70
2023-02-03T13:13:02.971Z,99442.88
2023-02-03T13:18:12.017Z,99437.52
2023-02-03T13:23:16.147Z,99433.57
2023-02-03T13:28:38.099Z,99432.98
2023-02-03T13:33:50.112Z,99420.31
2023-02-03T13:38:53.214Z,99413.48
2023-02-03T13:43:57.553Z,99410.98
2023-02-03T13:49:01.985Z,99404.15
2023-02-03T13:54:13.287Z,99394.95
2023-02-03T13:59:16.286Z,99388.34
2023-02-03T14:04:25.700Z,99387.27
2023-02-03T14:09:28.847Z,99382.73
2023-02-03T14:14:35.125Z,99373.42
2023-02-03T14:19:50.319Z,99375.30
2023-02-03T14:24:55.368Z,99373.86
2023-02-03T14:30:09.967Z,99371.38
2023-02-03T14:35:36.919Z,99367.34
2023-02-03T14:40:55.574Z,99360.32
2023-02-03T14:46:34.310Z,99352.04
2023-02-03T14:51:40.504Z,99343.16
2023-02-03T14:57:19.235Z,99337.22
2023-02-03T15:02:25.603Z,99329.12
2023-02-03T15:07:35.893Z,99325.71
2023-02-03T15:12:38.996Z,99330.46
2023-02-03T15:17:42.214Z,99327.11
2023-02-03T15:22:46.336Z,99324.28
2023-02-03T15:27:49.582Z,99328.10
2023-02-03T15:33:03.707Z,99335.97
2023-02-03T15:38:09.377Z,99345.19
2023-02-03T15:43:22.260Z,99352.80
2023-02-03T15:48:31.608Z,99357.91
2023-02-03T15:53:47.186Z,99366.52
2023-02-03T15:58:51.210Z,99363.61
2023-02-03T16:03:55.494Z,99370.16
2023-02-03T16:09:00.126Z,99384.94
2023-02-03T16:14:08.082Z,99395.84
2023-02-03T16:19:13.441Z,99402.52
2023-02-03T16:24:35.386Z,99415.66
2023-02-03T16:29:57.028Z,99423.40
2023-02-03T16:35:19.592Z,99419.19
2023-02-03T16:40:43.377Z,99422.16
2023-02-03T16:46:17.072Z,99430.09
2023-02-03T16:51:23.614Z,99438.41
2023-02-03T16:56:27.008Z,99445.24
2023-02-03T17:01:30.131Z,99439.65
2023-02-03T17:06:34.649Z,99442.23
2023-02-03T17:11:37.865Z,99449.48
2023-02-03T17:16:41.799Z,99454.10
2023-02-03T17:21:44.904Z,99464.48
2023-02-03T17:26:47.885Z,99455.21
2023-02-03T17:31:51.068Z,99450.88
2023-02-03T17:36:55.431Z,99467.25
2023-02-03T17:58:01.197Z,99490.73
2023-02-03T18:03:04.983Z,99480.61
2023-02-03T18:08:16.303Z,99493.27
2023-02-03T18:13:24.678Z,99506.08
2023-02-03T18:18:29.676Z,99503.45
2023-02-03T18:23:33.337Z,99511.00
2023-02-03T18:28:37.256Z,99518.77
2023-02-03T18:33:40.516Z,99508.30
2023-02-03T18:38:44.853Z,99506.73
2023-02-03T18:43:49.608Z,99515.16
2023-02-03T18:48:53.650Z,99534.10
2023-02-03T18:53:58.487Z,99541.80
2023-02-03T18:59:06.110Z,99547.55
2023-02-03T19:04:09.714Z,99555.75
2023-02-03T19:09:15.582Z,99571.67
2023-02-03T19:14:19.080Z,99582.55
2023-02-03T19:19:22.258Z,99588.16
2023-02-03T19:24:27.271Z,99587.52
2023-02-03T19:29:30.478Z,99590.25
2023-02-03T19:34:33.590Z,99599.23
2023-02-03T19:39:36.586Z,99626.17
2023-02-03T19:44:39.694Z,99657.58
2023-02-03T19:49:43.720Z,99670.94
2023-02-03T19:54:46.633Z,99667.96
2023-02-03T19:59:50.036Z,99680.98
2023-02-03T20:04:53.536Z,99685.27
2023-02-03T20:09:57.172Z,99685.48
2023-02-03T20:15:01.994Z,99694.75
2023-02-03T20:20:11.571Z,99700.08
2023-02-03T20:25:16.497Z,99726.27
2023-02-03T20:30:20.769Z,99732.62
2023-02-03T20:35:24.471Z,99743.70
2023-02-03T20:40:30.065Z,99760.39
2023-02-03T20:45:35.193Z,99767.45
2023-02-03T20:50:42.580Z,99772.42
2023-02-03T20:55:48.160Z,99789.21
2023-02-03T21:00:52.058Z,99804.16
2023-02-03T21:05:56.511Z,99824.54
2023-02-03T21:11:00.350Z,99845.81
2023-02-03T21:16:13.232Z,99866.77
2023-02-03T21:21:20.394Z,99888.20
2023-02-03T21:26:28.207Z,99901.76
2023-02-03T21:31:33.142Z,99915.61
2023-02-03T21:36:38.205Z,99932.12
2023-02-03T21:41:41.229Z,99954.22
2023-02-03T21:46:44.313Z,99975.75
2023-02-03T21:51:48.958Z,99997.05
2023-02-03T21:56:52.267Z,100013.12
2023-02-03T22:01:58.034Z,100030.33
2023-02-03T22:07:01.240Z,100041.75
2023-02-03T22:12:04.657Z,100059.16
2023-02-03T22:17:07.756Z,100076.61
2023-02-03T22:22:10.860Z,100091.64
2023-02-03T22:27:14.038Z,100104.45
2023-02-03T22:32:17.280Z,100110.54
2023-02-03T22:37:20.488Z,100124.44
2023-02-03T22:42:23.589Z,100136.95
2023-02-03T22:47:27.259Z,100141.13
2023-02-03T22:52:30.318Z,100148.25
2023-02-03T22:57:33.338Z,100149.06
2023-02-03T23:02:36.633Z,100166.34
2023-02-03T23:07:40.473Z,100182.77
2023-02-03T23:12:43.417Z,100195.18
2023-02-03T23:17:46.968Z,100214.91
2023-02-03T23:22:51.118Z,100227.84
2023-02-03T23:27:54.253Z,100239.73
2023-02-03T23:32:57.616Z,100254.46
2023-02-03T23:38:00.631Z,100271.75
2023-02-03T23:43:03.728Z,100290.22
2023-02-03T23:48:07.856Z,100305.34
2023-02-03T23:53:13.813Z,100316.65
2023-02-03T23:58:20.308Z,100327.55
